sensor_id;sensor_type;location;lat;lon;timestamp;temperature;humidity
66271;DHT22;53063;39.614;8.814;2023-12-29T00:01:57;9.30;99.90
66271;DHT22;53063;39.614;8.814;2023-12-29T00:04:25;9.30;99.90
66271;DHT22;53063;39.614;8.814;2023-12-29T00:06:51;9.20;99.90
66271;DHT22;53063;39.614;8.814;2023-12-29T00:09:17;9.10;99.90
66271;DHT22;53063;39.614;8.814;2023-12-29T00:11:50;9.10;99.90
66271;DHT22;53063;39.614;8.814;2023-12-29T00:14:16;9.10;99.90
66271;DHT22;53063;39.614;8.814;2023-12-29T00:16:42;8.90;99.90
66271;DHT22;53063;39.614;8.814;2023-12-29T00:19:10;8.80;99.90
66271;DHT22;53063;39.614;8.814;2023-12-29T00:21:36;8.80;99.90
66271;DHT22;53063;39.614;8.814;2023-12-29T00:24:03;8.90;99.90
66271;DHT22;53063;39.614;8.814;2023-12-29T00:26:29;8.90;99.90
66271;DHT22;53063;39.614;8.814;2023-12-29T00:28:57;8.90;99.90
66271;DHT22;53063;39.614;8.814;2023-12-29T00:31:23;8.90;99.90
66271;DHT22;53063;39.614;8.814;2023-12-29T00:33:51;8.90;99.90
66271;DHT22;53063;39.614;8.814;2023-12-29T00:36:20;8.90;99.90
66271;DHT22;53063;39.614;8.814;2023-12-29T00:38:46;9.00;99.90
66271;DHT22;53063;39.614;8.814;2023-12-29T00:41:12;9.00;99.90
66271;DHT22;53063;39.614;8.814;2023-12-29T00:43:39;9.10;99.90
66271;DHT22;53063;39.614;8.814;2023-12-29T00:46:05;9.30;99.90
66271;DHT22;53063;39.614;8.814;2023-12-29T00:48:32;9.40;99.90
66271;DHT22;53063;39.614;8.814;2023-12-29T00:50:58;9.40;99.90
66271;DHT22;53063;39.614;8.814;2023-12-29T00:53:24;9.40;99.90
66271;DHT22;53063;39.614;8.814;2023-12-29T00:55:49;9.30;99.90
66271;DHT22;53063;39.614;8.814;2023-12-29T00:58:15;9.40;99.90
66271;DHT22;53063;39.614;8.814;2023-12-29T01:00:41;9.50;99.90
66271;DHT22;53063;39.614;8.814;2023-12-29T01:03:07;9.40;99.90
66271;DHT22;53063;39.614;8.814;2023-12-29T01:05:33;9.30;99.90
66271;DHT22;53063;39.614;8.814;2023-12-29T01:07:59;9.10;99.90
66271;DHT22;53063;39.614;8.814;2023-12-29T01:10:25;9.00;99.90
66271;DHT22;53063;39.614;8.814;2023-12-29T01:12:50;8.90;99.90
66271;DHT22;53063;39.614;8.814;2023-12-29T01:15:16;9.10;99.90
66271;DHT22;53063;39.614;8.814;2023-12-29T01:17:43;9.30;99.90
66271;DHT22;53063;39.614;8.814;2023-12-29T01:20:09;9.50;99.90
66271;DHT22;53063;39.614;8.814;2023-12-29T01:22:35;9.40;99.90
66271;DHT22;53063;39.614;8.814;2023-12-29T01:25:02;9.40;99.90
66271;DHT22;53063;39.614;8.814;2023-12-29T01:27:29;9.50;99.90
66271;DHT22;53063;39.614;8.814;2023-12-29T01:29:55;9.60;99.90
66271;DHT22;53063;39.614;8.814;2023-12-29T01:32:22;9.70;99.90
66271;DHT22;53063;39.614;8.814;2023-12-29T01:34:48;9.90;99.90
66271;DHT22;53063;39.614;8.814;2023-12-29T01:37:14;9.90;99.90
66271;DHT22;53063;39.614;8.814;2023-12-29T01:39:40;10.00;99.90
66271;DHT22;53063;39.614;8.814;2023-12-29T01:42:06;10.00;99.90
66271;DHT22;53063;39.614;8.814;2023-12-29T01:44:32;9.90;99.90
66271;DHT22;53063;39.614;8.814;2023-12-29T01:47:03;10.00;99.90
66271;DHT22;53063;39.614;8.814;2023-12-29T01:49:33;10.10;99.90
66271;DHT22;53063;39.614;8.814;2023-12-29T01:52:00;10.20;99.90
66271;DHT22;53063;39.614;8.814;2023-12-29T01:54:32;10.20;99.90
66271;DHT22;53063;39.614;8.814;2023-12-29T01:57:00;10.10;99.90
66271;DHT22;53063;39.614;8.814;2023-12-29T01:59:28;10.20;99.90
66271;DHT22;53063;39.614;8.814;2023-12-29T02:01:55;10.20;99.90
66271;DHT22;53063;39.614;8.814;2023-12-29T02:04:24;10.00;99.90
66271;DHT22;53063;39.614;8.814;2023-12-29T02:06:51;10.10;99.90
66271;DHT22;53063;39.614;8.814;2023-12-29T02:09:17;10.10;99.90
66271;DHT22;53063;39.614;8.814;2023-12-29T02:11:45;10.10;99.90
66271;DHT22;53063;39.614;8.814;2023-12-29T02:14:11;10.00;99.90
66271;DHT22;53063;39.614;8.814;2023-12-29T02:19:22;10.10;99.90
66271;DHT22;53063;39.614;8.814;2023-12-29T02:21:50;10.10;99.90
66271;DHT22;53063;39.614;8.814;2023-12-29T02:24:16;10.20;99.90
66271;DHT22;53063;39.614;8.814;2023-12-29T02:26:47;10.30;99.90
66271;DHT22;53063;39.614;8.814;2023-12-29T02:29:18;10.30;99.90
66271;DHT22;53063;39.614;8.814;2023-12-29T02:31:50;10.40;99.90
66271;DHT22;53063;39.614;8.814;2023-12-29T02:34:19;10.30;99.90
66271;DHT22;53063;39.614;8.814;2023-12-29T02:36:47;10.20;99.90
66271;DHT22;53063;39.614;8.814;2023-12-29T02:39:14;10.10;99.90
66271;DHT22;53063;39.614;8.814;2023-12-29T02:41:40;10.00;99.90
66271;DHT22;53063;39.614;8.814;2023-12-29T02:44:06;9.90;99.90
66271;DHT22;53063;39.614;8.814;2023-12-29T02:46:32;9.80;99.90
66271;DHT22;53063;39.614;8.814;2023-12-29T02:48:58;9.70;99.90
66271;DHT22;53063;39.614;8.814;2023-12-29T02:51:25;9.70;99.90
66271;DHT22;53063;39.614;8.814;2023-12-29T02:53:51;9.70;99.90
66271;DHT22;53063;39.614;8.814;2023-12-29T02:56:17;9.70;99.90
66271;DHT22;53063;39.614;8.814;2023-12-29T02:58:43;9.70;99.90
66271;DHT22;53063;39.614;8.814;2023-12-29T03:01:11;9.70;99.90
66271;DHT22;53063;39.614;8.814;2023-12-29T03:03:37;9.80;99.90
66271;DHT22;53063;39.614;8.814;2023-12-29T03:06:06;9.80;99.90
66271;DHT22;53063;39.614;8.814;2023-12-29T03:08:32;10.00;99.90
66271;DHT22;53063;39.614;8.814;2023-12-29T03:10:58;9.90;99.90
66271;DHT22;53063;39.614;8.814;2023-12-29T03:13:24;9.90;99.90
66271;DHT22;53063;39.614;8.814;2023-12-29T03:15:50;10.00;99.90
66271;DHT22;53063;39.614;8.814;2023-12-29T03:18:16;10.00;99.90
66271;DHT22;53063;39.614;8.814;2023-12-29T03:20:42;9.90;99.90
66271;DHT22;53063;39.614;8.814;2023-12-29T03:23:08;9.90;99.90
66271;DHT22;53063;39.614;8.814;2023-12-29T03:25:34;10.00;99.90
66271;DHT22;53063;39.614;8.814;2023-12-29T03:28:00;10.00;99.90
66271;DHT22;53063;39.614;8.814;2023-12-29T03:30:26;9.90;99.90
66271;DHT22;53063;39.614;8.814;2023-12-29T03:32:52;9.60;99.90
66271;DHT22;53063;39.614;8.814;2023-12-29T03:35:18;9.60;99.90
66271;DHT22;53063;39.614;8.814;2023-12-29T03:37:44;9.70;99.90
66271;DHT22;53063;39.614;8.814;2023-12-29T03:40:10;9.90;99.90
66271;DHT22;53063;39.614;8.814;2023-12-29T03:42:37;9.90;99.90
66271;DHT22;53063;39.614;8.814;2023-12-29T03:45:04;9.70;99.90
66271;DHT22;53063;39.614;8.814;2023-12-29T03:47:30;9.70;99.90
66271;DHT22;53063;39.614;8.814;2023-12-29T03:49:58;9.80;99.90
66271;DHT22;53063;39.614;8.814;2023-12-29T03:52:24;9.80;99.90
66271;DHT22;53063;39.614;8.814;2023-12-29T03:54:50;9.80;99.90
66271;DHT22;53063;39.614;8.814;2023-12-29T03:57:16;9.70;99.90
66271;DHT22;53063;39.614;8.814;2023-12-29T03:59:42;9.70;99.90
66271;DHT22;53063;39.614;8.814;2023-12-29T04:02:08;9.80;99.90
66271;DHT22;53063;39.614;8.814;2023-12-29T04:04:37;9.90;99.90
66271;DHT22;53063;39.614;8.814;2023-12-29T04:07:04;9.90;99.90
66271;DHT22;53063;39.614;8.814;2023-12-29T04:09:30;9.90;99.90
66271;DHT22;53063;39.614;8.814;2023-12-29T04:11:56;10.00;99.90
66271;DHT22;53063;39.614;8.814;2023-12-29T04:14:22;9.90;99.90
66271;DHT22;53063;39.614;8.814;2023-12-29T04:16:48;9.80;99.90
66271;DHT22;53063;39.614;8.814;2023-12-29T04:19:14;9.90;99.90
66271;DHT22;53063;39.614;8.814;2023-12-29T04:21:40;10.10;99.90
66271;DHT22;53063;39.614;8.814;2023-12-29T04:24:06;9.90;99.90
66271;DHT22;53063;39.614;8.814;2023-12-29T04:26:36;9.90;99.90
66271;DHT22;53063;39.614;8.814;2023-12-29T04:29:03;9.90;99.90
66271;DHT22;53063;39.614;8.814;2023-12-29T04:31:29;10.00;99.90
66271;DHT22;53063;39.614;8.814;2023-12-29T04:33:55;9.90;99.90
66271;DHT22;53063;39.614;8.814;2023-12-29T04:36:21;10.00;99.90
66271;DHT22;53063;39.614;8.814;2023-12-29T04:38:47;9.80;99.90
66271;DHT22;53063;39.614;8.814;2023-12-29T04:41:13;9.80;99.90
66271;DHT22;53063;39.614;8.814;2023-12-29T04:43:39;9.80;99.90
66271;DHT22;53063;39.614;8.814;2023-12-29T04:46:05;9.80;99.90
66271;DHT22;53063;39.614;8.814;2023-12-29T04:48:31;9.80;99.90
66271;DHT22;53063;39.614;8.814;2023-12-29T04:50:56;9.80;99.90
66271;DHT22;53063;39.614;8.814;2023-12-29T04:53:22;9.80;99.90
66271;DHT22;53063;39.614;8.814;2023-12-29T04:55:48;9.80;99.90
66271;DHT22;53063;39.614;8.814;2023-12-29T04:58:14;9.90;99.90
66271;DHT22;53063;39.614;8.814;2023-12-29T05:00:40;9.70;99.90
66271;DHT22;53063;39.614;8.814;2023-12-29T05:03:06;9.60;99.90
66271;DHT22;53063;39.614;8.814;2023-12-29T05:05:32;9.50;99.90
66271;DHT22;53063;39.614;8.814;2023-12-29T05:07:58;9.40;99.90
66271;DHT22;53063;39.614;8.814;2023-12-29T05:10:24;9.40;99.90
66271;DHT22;53063;39.614;8.814;2023-12-29T05:12:50;9.30;99.90
66271;DHT22;53063;39.614;8.814;2023-12-29T05:15:15;9.40;99.90
66271;DHT22;53063;39.614;8.814;2023-12-29T05:17:41;9.40;99.90
66271;DHT22;53063;39.614;8.814;2023-12-29T05:20:08;9.40;99.90
66271;DHT22;53063;39.614;8.814;2023-12-29T05:22:34;9.40;99.90
66271;DHT22;53063;39.614;8.814;2023-12-29T05:25:00;9.30;99.90
66271;DHT22;53063;39.614;8.814;2023-12-29T05:27:26;9.30;99.90
66271;DHT22;53063;39.614;8.814;2023-12-29T05:29:52;9.20;99.90
66271;DHT22;53063;39.614;8.814;2023-12-29T05:32:18;9.10;99.90
66271;DHT22;53063;39.614;8.814;2023-12-29T05:34:44;8.90;99.90
66271;DHT22;53063;39.614;8.814;2023-12-29T05:37:10;8.90;99.90
66271;DHT22;53063;39.614;8.814;2023-12-29T05:39:36;8.90;99.90
66271;DHT22;53063;39.614;8.814;2023-12-29T05:42:02;8.80;99.90
66271;DHT22;53063;39.614;8.814;2023-12-29T05:44:28;8.80;99.90
66271;DHT22;53063;39.614;8.814;2023-12-29T05:46:54;8.90;99.90
66271;DHT22;53063;39.614;8.814;2023-12-29T05:49:24;8.90;99.90
66271;DHT22;53063;39.614;8.814;2023-12-29T05:51:51;8.80;99.90
66271;DHT22;53063;39.614;8.814;2023-12-29T05:54:17;8.80;99.90
66271;DHT22;53063;39.614;8.814;2023-12-29T05:56:44;8.80;99.90
66271;DHT22;53063;39.614;8.814;2023-12-29T05:59:10;8.80;99.90
66271;DHT22;53063;39.614;8.814;2023-12-29T06:01:35;9.00;99.90
66271;DHT22;53063;39.614;8.814;2023-12-29T06:04:01;9.00;99.90
66271;DHT22;53063;39.614;8.814;2023-12-29T06:06:27;9.10;99.90
66271;DHT22;53063;39.614;8.814;2023-12-29T06:08:54;9.10;99.90
66271;DHT22;53063;39.614;8.814;2023-12-29T06:11:20;9.10;99.90
66271;DHT22;53063;39.614;8.814;2023-12-29T06:13:46;9.00;99.90
66271;DHT22;53063;39.614;8.814;2023-12-29T06:16:19;8.90;99.90
66271;DHT22;53063;39.614;8.814;2023-12-29T06:18:45;8.80;99.90
66271;DHT22;53063;39.614;8.814;2023-12-29T06:21:11;8.80;99.90
66271;DHT22;53063;39.614;8.814;2023-12-29T06:23:37;8.80;99.90
66271;DHT22;53063;39.614;8.814;2023-12-29T06:26:03;8.80;99.90
66271;DHT22;53063;39.614;8.814;2023-12-29T06:28:29;9.00;99.90
66271;DHT22;53063;39.614;8.814;2023-12-29T06:30:55;9.10;99.90
66271;DHT22;53063;39.614;8.814;2023-12-29T06:33:21;9.20;99.90
66271;DHT22;53063;39.614;8.814;2023-12-29T06:35:48;9.10;99.90
66271;DHT22;53063;39.614;8.814;2023-12-29T06:38:14;9.10;99.90
66271;DHT22;53063;39.614;8.814;2023-12-29T06:40:40;9.20;99.90
66271;DHT22;53063;39.614;8.814;2023-12-29T06:43:06;9.30;99.90
66271;DHT22;53063;39.614;8.814;2023-12-29T06:45:32;9.40;99.90
66271;DHT22;53063;39.614;8.814;2023-12-29T06:47:58;9.40;99.90
66271;DHT22;53063;39.614;8.814;2023-12-29T06:50:24;9.40;99.90
66271;DHT22;53063;39.614;8.814;2023-12-29T06:52:49;9.50;99.90
66271;DHT22;53063;39.614;8.814;2023-12-29T06:55:15;9.40;99.90
66271;DHT22;53063;39.614;8.814;2023-12-29T06:57:41;9.30;99.90
66271;DHT22;53063;39.614;8.814;2023-12-29T07:00:07;9.40;99.90
66271;DHT22;53063;39.614;8.814;2023-12-29T07:02:38;9.60;99.90
66271;DHT22;53063;39.614;8.814;2023-12-29T07:05:05;9.60;99.90
66271;DHT22;53063;39.614;8.814;2023-12-29T07:07:30;9.70;99.90
66271;DHT22;53063;39.614;8.814;2023-12-29T07:09:56;10.00;99.90
66271;DHT22;53063;39.614;8.814;2023-12-29T07:12:22;10.00;99.90
66271;DHT22;53063;39.614;8.814;2023-12-29T07:14:48;10.10;99.90
66271;DHT22;53063;39.614;8.814;2023-12-29T07:17:14;10.20;99.90
66271;DHT22;53063;39.614;8.814;2023-12-29T07:19:40;10.30;99.90
66271;DHT22;53063;39.614;8.814;2023-12-29T07:22:06;10.40;99.90
66271;DHT22;53063;39.614;8.814;2023-12-29T07:24:34;10.60;99.90
66271;DHT22;53063;39.614;8.814;2023-12-29T07:27:01;10.80;99.90
66271;DHT22;53063;39.614;8.814;2023-12-29T07:29:27;11.00;99.90
66271;DHT22;53063;39.614;8.814;2023-12-29T07:31:53;11.10;99.90
66271;DHT22;53063;39.614;8.814;2023-12-29T07:34:19;11.30;99.90
66271;DHT22;53063;39.614;8.814;2023-12-29T07:36:45;11.40;99.90
66271;DHT22;53063;39.614;8.814;2023-12-29T07:39:11;11.20;99.90
66271;DHT22;53063;39.614;8.814;2023-12-29T07:41:41;10.90;99.90
66271;DHT22;53063;39.614;8.814;2023-12-29T07:44:09;10.80;99.90
66271;DHT22;53063;39.614;8.814;2023-12-29T07:46:38;10.90;99.90
66271;DHT22;53063;39.614;8.814;2023-12-29T07:49:04;11.20;99.90
66271;DHT22;53063;39.614;8.814;2023-12-29T07:51:30;11.30;99.90
66271;DHT22;53063;39.614;8.814;2023-12-29T07:53:57;11.40;99.90
66271;DHT22;53063;39.614;8.814;2023-12-29T07:56:23;11.80;99.90
66271;DHT22;53063;39.614;8.814;2023-12-29T07:58:49;12.00;99.90
66271;DHT22;53063;39.614;8.814;2023-12-29T08:01:15;12.20;99.90
66271;DHT22;53063;39.614;8.814;2023-12-29T08:03:41;12.30;99.90
66271;DHT22;53063;39.614;8.814;2023-12-29T08:06:06;12.70;99.90
66271;DHT22;53063;39.614;8.814;2023-12-29T08:08:32;12.50;99.90
66271;DHT22;53063;39.614;8.814;2023-12-29T08:10:58;12.40;99.90
66271;DHT22;53063;39.614;8.814;2023-12-29T08:13:24;12.30;99.90
66271;DHT22;53063;39.614;8.814;2023-12-29T08:15:50;12.90;99.90
66271;DHT22;53063;39.614;8.814;2023-12-29T08:18:16;13.60;99.90
66271;DHT22;53063;39.614;8.814;2023-12-29T08:20:42;14.00;99.90
66271;DHT22;53063;39.614;8.814;2023-12-29T08:23:09;13.60;99.90
66271;DHT22;53063;39.614;8.814;2023-12-29T08:25:35;13.40;99.90
66271;DHT22;53063;39.614;8.814;2023-12-29T08:28:02;13.90;99.90
66271;DHT22;53063;39.614;8.814;2023-12-29T08:30:28;14.60;99.90
66271;DHT22;53063;39.614;8.814;2023-12-29T08:32:54;14.30;99.90
66271;DHT22;53063;39.614;8.814;2023-12-29T08:35:20;13.80;99.90
66271;DHT22;53063;39.614;8.814;2023-12-29T08:37:46;13.00;99.90
66271;DHT22;53063;39.614;8.814;2023-12-29T08:40:12;12.60;99.90
66271;DHT22;53063;39.614;8.814;2023-12-29T08:42:38;12.50;99.90
66271;DHT22;53063;39.614;8.814;2023-12-29T08:45:05;12.40;99.90
66271;DHT22;53063;39.614;8.814;2023-12-29T08:47:30;12.20;99.90
66271;DHT22;53063;39.614;8.814;2023-12-29T08:49:56;12.40;99.90
66271;DHT22;53063;39.614;8.814;2023-12-29T08:52:22;12.20;99.90
66271;DHT22;53063;39.614;8.814;2023-12-29T08:54:48;12.60;99.90
66271;DHT22;53063;39.614;8.814;2023-12-29T08:57:14;13.00;99.90
66271;DHT22;53063;39.614;8.814;2023-12-29T08:59:41;12.50;99.90
66271;DHT22;53063;39.614;8.814;2023-12-29T09:02:07;12.00;99.90
66271;DHT22;53063;39.614;8.814;2023-12-29T09:04:33;11.60;99.90
66271;DHT22;53063;39.614;8.814;2023-12-29T09:06:59;11.50;99.90
66271;DHT22;53063;39.614;8.814;2023-12-29T09:09:25;11.60;99.90
66271;DHT22;53063;39.614;8.814;2023-12-29T09:11:51;11.70;99.90
66271;DHT22;53063;39.614;8.814;2023-12-29T09:14:17;11.60;99.90
66271;DHT22;53063;39.614;8.814;2023-12-29T09:16:43;11.60;99.90
66271;DHT22;53063;39.614;8.814;2023-12-29T09:19:12;11.50;99.90
66271;DHT22;53063;39.614;8.814;2023-12-29T09:21:39;11.50;99.90
66271;DHT22;53063;39.614;8.814;2023-12-29T09:24:06;11.60;99.90
66271;DHT22;53063;39.614;8.814;2023-12-29T09:26:31;11.40;99.90
66271;DHT22;53063;39.614;8.814;2023-12-29T09:28:57;11.40;99.90
66271;DHT22;53063;39.614;8.814;2023-12-29T09:31:23;11.50;99.90
66271;DHT22;53063;39.614;8.814;2023-12-29T09:33:49;11.50;99.90
66271;DHT22;53063;39.614;8.814;2023-12-29T09:36:15;11.60;99.90
66271;DHT22;53063;39.614;8.814;2023-12-29T09:38:41;11.60;99.90
66271;DHT22;53063;39.614;8.814;2023-12-29T09:41:14;11.50;99.90
66271;DHT22;53063;39.614;8.814;2023-12-29T09:43:41;11.60;99.90
66271;DHT22;53063;39.614;8.814;2023-12-29T09:46:10;11.60;99.90
66271;DHT22;53063;39.614;8.814;2023-12-29T09:48:38;11.80;99.90
66271;DHT22;53063;39.614;8.814;2023-12-29T09:51:06;12.00;99.90
66271;DHT22;53063;39.614;8.814;2023-12-29T09:53:37;12.00;99.90
66271;DHT22;53063;39.614;8.814;2023-12-29T09:56:03;13.30;99.90
66271;DHT22;53063;39.614;8.814;2023-12-29T09:58:30;13.80;99.90
66271;DHT22;53063;39.614;8.814;2023-12-29T10:00:56;14.20;99.90
66271;DHT22;53063;39.614;8.814;2023-12-29T10:03:22;14.80;99.90
66271;DHT22;53063;39.614;8.814;2023-12-29T10:05:51;15.30;99.90
66271;DHT22;53063;39.614;8.814;2023-12-29T10:08:21;16.40;99.90
66271;DHT22;53063;39.614;8.814;2023-12-29T10:10:48;16.40;99.90
66271;DHT22;53063;39.614;8.814;2023-12-29T10:13:16;20.20;99.80
66271;DHT22;53063;39.614;8.814;2023-12-29T10:16:24;21.70;76.80
66271;DHT22;53063;39.614;8.814;2023-12-29T10:19:37;22.50;70.40
66271;DHT22;53063;39.614;8.814;2023-12-29T10:24:16;18.50;87.10
66271;DHT22;53063;39.614;8.814;2023-12-29T10:26:43;17.10;92.20
66271;DHT22;53063;39.614;8.814;2023-12-29T10:29:12;19.90;87.70
66271;DHT22;53063;39.614;8.814;2023-12-29T10:31:38;22.30;72.90
66271;DHT22;53063;39.614;8.814;2023-12-29T10:34:23;22.00;72.40
66271;DHT22;53063;39.614;8.814;2023-12-29T10:36:56;21.20;74.30
66271;DHT22;53063;39.614;8.814;2023-12-29T10:39:22;21.70;76.00
66271;DHT22;53063;39.614;8.814;2023-12-29T10:41:49;22.90;71.10
66271;DHT22;53063;39.614;8.814;2023-12-29T10:44:16;25.60;61.80
66271;DHT22;53063;39.614;8.814;2023-12-29T10:46:42;25.70;62.70
66271;DHT22;53063;39.614;8.814;2023-12-29T10:49:09;27.10;56.40
66271;DHT22;53063;39.614;8.814;2023-12-29T10:51:36;26.60;56.40
66271;DHT22;53063;39.614;8.814;2023-12-29T10:54:03;22.20;66.10
66271;DHT22;53063;39.614;8.814;2023-12-29T10:56:33;20.30;75.50
66271;DHT22;53063;39.614;8.814;2023-12-29T10:59:03;20.00;78.50
66271;DHT22;53063;39.614;8.814;2023-12-29T11:01:30;20.20;80.90
66271;DHT22;53063;39.614;8.814;2023-12-29T11:03:58;21.50;71.90
66271;DHT22;53063;39.614;8.814;2023-12-29T11:06:26;18.60;81.90
66271;DHT22;53063;39.614;8.814;2023-12-29T11:08:53;16.80;92.80
66271;DHT22;53063;39.614;8.814;2023-12-29T11:11:20;16.80;95.40
66271;DHT22;53063;39.614;8.814;2023-12-29T11:13:50;16.70;96.50
66271;DHT22;53063;39.614;8.814;2023-12-29T11:16:16;16.50;97.80
66271;DHT22;53063;39.614;8.814;2023-12-29T11:18:49;17.00;96.60
66271;DHT22;53063;39.614;8.814;2023-12-29T11:21:19;17.90;91.40
66271;DHT22;53063;39.614;8.814;2023-12-29T11:23:47;21.20;79.70
66271;DHT22;53063;39.614;8.814;2023-12-29T11:26:13;24.60;62.80
66271;DHT22;53063;39.614;8.814;2023-12-29T11:28:39;24.80;58.50
66271;DHT22;53063;39.614;8.814;2023-12-29T11:31:06;21.70;66.50
66271;DHT22;53063;39.614;8.814;2023-12-29T11:33:40;20.30;71.60
66271;DHT22;53063;39.614;8.814;2023-12-29T11:36:11;18.00;82.50
66271;DHT22;53063;39.614;8.814;2023-12-29T11:38:45;19.40;82.60
66271;DHT22;53063;39.614;8.814;2023-12-29T11:41:33;21.00;71.60
66271;DHT22;53063;39.614;8.814;2023-12-29T11:44:02;19.30;77.80
66271;DHT22;53063;39.614;8.814;2023-12-29T11:46:43;18.00;84.20
66271;DHT22;53063;39.614;8.814;2023-12-29T11:49:09;18.40;86.60
66271;DHT22;53063;39.614;8.814;2023-12-29T11:51:36;18.50;84.80
66271;DHT22;53063;39.614;8.814;2023-12-29T11:54:05;19.00;84.30
66271;DHT22;53063;39.614;8.814;2023-12-29T11:56:39;18.60;84.50
66271;DHT22;53063;39.614;8.814;2023-12-29T11:59:25;18.90;85.00
66271;DHT22;53063;39.614;8.814;2023-12-29T12:01:57;17.70;87.10
66271;DHT22;53063;39.614;8.814;2023-12-29T12:04:42;17.10;91.80
66271;DHT22;53063;39.614;8.814;2023-12-29T12:07:15;16.80;93.50
66271;DHT22;53063;39.614;8.814;2023-12-29T12:09:41;16.90;94.30
66271;DHT22;53063;39.614;8.814;2023-12-29T12:12:07;16.80;95.10
66271;DHT22;53063;39.614;8.814;2023-12-29T12:17:10;16.60;96.00
66271;DHT22;53063;39.614;8.814;2023-12-29T12:19:36;16.70;96.70
66271;DHT22;53063;39.614;8.814;2023-12-29T12:22:02;16.80;97.00
66271;DHT22;53063;39.614;8.814;2023-12-29T12:24:29;16.20;98.90
66271;DHT22;53063;39.614;8.814;2023-12-29T12:26:55;16.40;99.00
66271;DHT22;53063;39.614;8.814;2023-12-29T12:29:21;16.40;98.50
66271;DHT22;53063;39.614;8.814;2023-12-29T12:31:57;16.70;99.30
66271;DHT22;53063;39.614;8.814;2023-12-29T12:34:23;17.10;98.20
66271;DHT22;53063;39.614;8.814;2023-12-29T12:36:51;17.50;95.80
66271;DHT22;53063;39.614;8.814;2023-12-29T12:39:17;17.70;94.90
66271;DHT22;53063;39.614;8.814;2023-12-29T12:41:44;17.30;93.80
66271;DHT22;53063;39.614;8.814;2023-12-29T12:44:14;16.90;97.30
66271;DHT22;53063;39.614;8.814;2023-12-29T12:46:50;16.30;98.60
66271;DHT22;53063;39.614;8.814;2023-12-29T12:49:20;15.80;99.90
66271;DHT22;53063;39.614;8.814;2023-12-29T12:51:46;16.00;99.90
66271;DHT22;53063;39.614;8.814;2023-12-29T12:54:14;16.00;99.90
66271;DHT22;53063;39.614;8.814;2023-12-29T12:56:43;15.90;99.90
66271;DHT22;53063;39.614;8.814;2023-12-29T12:59:09;15.90;99.90
66271;DHT22;53063;39.614;8.814;2023-12-29T13:01:36;15.90;99.90
66271;DHT22;53063;39.614;8.814;2023-12-29T13:04:04;15.80;99.90
66271;DHT22;53063;39.614;8.814;2023-12-29T13:06:32;16.00;99.90
66271;DHT22;53063;39.614;8.814;2023-12-29T13:09:00;15.80;99.90
66271;DHT22;53063;39.614;8.814;2023-12-29T13:11:27;15.80;99.90
66271;DHT22;53063;39.614;8.814;2023-12-29T13:13:54;15.90;99.90
66271;DHT22;53063;39.614;8.814;2023-12-29T13:16:29;16.00;99.90
66271;DHT22;53063;39.614;8.814;2023-12-29T13:18:56;15.80;99.90
66271;DHT22;53063;39.614;8.814;2023-12-29T13:21:22;15.90;99.90
66271;DHT22;53063;39.614;8.814;2023-12-29T13:23:48;16.10;99.90
66271;DHT22;53063;39.614;8.814;2023-12-29T13:26:18;16.00;99.90
66271;DHT22;53063;39.614;8.814;2023-12-29T13:28:45;15.90;99.90
66271;DHT22;53063;39.614;8.814;2023-12-29T13:31:13;16.00;99.90
66271;DHT22;53063;39.614;8.814;2023-12-29T13:36:20;16.10;99.90
66271;DHT22;53063;39.614;8.814;2023-12-29T13:38:57;16.20;99.90
66271;DHT22;53063;39.614;8.814;2023-12-29T13:41:25;16.30;99.90
66271;DHT22;53063;39.614;8.814;2023-12-29T13:43:54;16.50;99.90
66271;DHT22;53063;39.614;8.814;2023-12-29T13:46:20;16.70;99.90
66271;DHT22;53063;39.614;8.814;2023-12-29T13:48:48;17.10;98.20
66271;DHT22;53063;39.614;8.814;2023-12-29T13:51:16;17.20;93.80
66271;DHT22;53063;39.614;8.814;2023-12-29T13:53:42;17.10;95.90
66271;DHT22;53063;39.614;8.814;2023-12-29T13:56:10;19.90;87.20
66271;DHT22;53063;39.614;8.814;2023-12-29T13:58:36;19.90;80.70
66271;DHT22;53063;39.614;8.814;2023-12-29T14:01:06;21.00;77.40
66271;DHT22;53063;39.614;8.814;2023-12-29T14:03:58;22.80;69.30
66271;DHT22;53063;39.614;8.814;2023-12-29T14:06:31;23.50;64.70
66271;DHT22;53063;39.614;8.814;2023-12-29T14:09:01;23.30;62.60
66271;DHT22;53063;39.614;8.814;2023-12-29T14:11:27;22.70;63.00
66271;DHT22;53063;39.614;8.814;2023-12-29T14:13:53;18.60;78.10
66271;DHT22;53063;39.614;8.814;2023-12-29T14:16:20;17.40;84.50
66271;DHT22;53063;39.614;8.814;2023-12-29T14:18:55;16.70;89.90
66271;DHT22;53063;39.614;8.814;2023-12-29T14:21:29;16.60;92.30
66271;DHT22;53063;39.614;8.814;2023-12-29T14:24:07;16.40;93.80
66271;DHT22;53063;39.614;8.814;2023-12-29T14:26:53;16.20;95.30
66271;DHT22;53063;39.614;8.814;2023-12-29T14:29:20;16.30;96.30
66271;DHT22;53063;39.614;8.814;2023-12-29T14:31:47;16.50;95.40
66271;DHT22;53063;39.614;8.814;2023-12-29T14:34:13;16.40;94.80
66271;DHT22;53063;39.614;8.814;2023-12-29T14:36:41;16.50;95.00
66271;DHT22;53063;39.614;8.814;2023-12-29T14:39:07;16.50;95.20
66271;DHT22;53063;39.614;8.814;2023-12-29T14:41:35;16.40;95.20
66271;DHT22;53063;39.614;8.814;2023-12-29T14:44:02;16.20;95.70
66271;DHT22;53063;39.614;8.814;2023-12-29T14:46:28;16.20;96.40
66271;DHT22;53063;39.614;8.814;2023-12-29T14:48:57;16.00;96.60
66271;DHT22;53063;39.614;8.814;2023-12-29T14:51:24;15.90;97.50
66271;DHT22;53063;39.614;8.814;2023-12-29T14:53:50;15.90;98.20
66271;DHT22;53063;39.614;8.814;2023-12-29T14:56:16;15.80;98.80
66271;DHT22;53063;39.614;8.814;2023-12-29T14:58:43;15.80;99.20
66271;DHT22;53063;39.614;8.814;2023-12-29T15:01:09;15.70;99.70
66271;DHT22;53063;39.614;8.814;2023-12-29T15:03:35;15.70;99.90
66271;DHT22;53063;39.614;8.814;2023-12-29T15:06:03;15.60;99.90
66271;DHT22;53063;39.614;8.814;2023-12-29T15:08:29;15.50;99.90
66271;DHT22;53063;39.614;8.814;2023-12-29T15:11:04;15.40;99.90
66271;DHT22;53063;39.614;8.814;2023-12-29T15:13:32;15.50;99.90
66271;DHT22;53063;39.614;8.814;2023-12-29T15:15:59;15.40;99.90
66271;DHT22;53063;39.614;8.814;2023-12-29T15:18:26;15.30;99.90
66271;DHT22;53063;39.614;8.814;2023-12-29T15:20:53;15.30;99.90
66271;DHT22;53063;39.614;8.814;2023-12-29T15:23:19;15.30;99.90
66271;DHT22;53063;39.614;8.814;2023-12-29T15:25:45;15.30;99.90
66271;DHT22;53063;39.614;8.814;2023-12-29T15:28:11;15.30;99.90
66271;DHT22;53063;39.614;8.814;2023-12-29T15:30:37;15.40;99.90
66271;DHT22;53063;39.614;8.814;2023-12-29T15:33:03;15.30;99.90
66271;DHT22;53063;39.614;8.814;2023-12-29T15:35:28;15.20;99.90
66271;DHT22;53063;39.614;8.814;2023-12-29T15:37:55;15.10;99.90
66271;DHT22;53063;39.614;8.814;2023-12-29T15:40:21;15.00;99.90
66271;DHT22;53063;39.614;8.814;2023-12-29T15:42:47;15.00;99.90
66271;DHT22;53063;39.614;8.814;2023-12-29T15:45:14;14.90;99.90
66271;DHT22;53063;39.614;8.814;2023-12-29T15:47:42;14.80;99.90
66271;DHT22;53063;39.614;8.814;2023-12-29T15:50:08;14.90;99.90